Time;durP1;ratioP1;P1;durP2;ratioP2;P2;SDS_P1;SDS_P2;PMS_P1;PMS_P2;Temp;Humidity;BMP_temperature;BMP_pressure;BME280_temperature;BME280_humidity;BME280_pressure;Samples;Min_cycle;Max_cycle;Signal;HPM_P1;HPM_P2
2023/06/11 00:01:57;;;;;;;6.68;3.40;;;20.90;99.90;;;;;;5028417;28;20280;-73
2023/06/11 00:04:27;;;;;;;4.32;2.75;;;20.90;99.90;;;;;;5028622;28;20713;-74
2023/06/11 00:06:54;;;;;;;6.63;2.88;;;20.90;99.90;;;;;;5026167;28;20220;-74
2023/06/11 00:09:22;;;;;;;2.95;2.50;;;20.90;99.90;;;;;;5024181;28;20718;-73
2023/06/11 00:11:47;;;;;;;5.82;2.65;;;20.80;99.90;;;;;;5025096;28;20234;-73
2023/06/11 00:14:13;;;;;;;7.10;3.53;;;20.80;99.90;;;;;;5028813;28;20639;-73
2023/06/11 00:16:43;;;;;;;4.07;2.92;;;20.80;99.90;;;;;;5023835;28;20515;-72
2023/06/11 00:19:09;;;;;;;3.65;3.03;;;20.80;99.90;;;;;;5025891;28;20712;-74
2023/06/11 00:21:36;;;;;;;5.70;3.08;;;20.70;99.90;;;;;;5027118;28;20204;-73
2023/06/11 00:24:02;;;;;;;3.78;3.03;;;20.60;99.90;;;;;;5024189;28;20172;-73
2023/06/11 00:26:28;;;;;;;4.60;2.90;;;20.60;99.90;;;;;;5024087;28;20183;-72
2023/06/11 00:28:53;;;;;;;5.68;3.05;;;20.60;99.90;;;;;;5027325;28;20199;-73
2023/06/11 00:31:20;;;;;;;5.85;3.28;;;20.50;99.90;;;;;;5023565;28;20232;-73
2023/06/11 00:33:45;;;;;;;5.55;3.17;;;20.50;99.90;;;;;;5026071;28;20739;-74
2023/06/11 00:36:11;;;;;;;5.20;2.85;;;20.50;99.90;;;;;;5022603;28;20208;-74
2023/06/11 00:38:37;;;;;;;4.97;3.05;;;20.40;99.90;;;;;;5026319;28;20216;-73
2023/06/11 00:41:02;;;;;;;6.65;3.00;;;20.40;99.90;;;;;;5028878;28;20215;-73
2023/06/11 00:43:30;;;;;;;4.93;2.90;;;20.40;99.90;;;;;;5028655;28;20205;-73
2023/06/11 00:45:56;;;;;;;5.70;2.67;;;20.40;99.90;;;;;;5023243;28;20877;-74
2023/06/11 00:48:22;;;;;;;4.72;2.53;;;20.30;99.90;;;;;;5026895;28;20228;-73
2023/06/11 00:50:51;;;;;;;5.10;2.58;;;20.20;99.90;;;;;;5029176;28;20644;-74
2023/06/11 00:53:19;;;;;;;4.93;3.30;;;20.20;99.90;;;;;;5026399;28;20215;-73
2023/06/11 00:55:45;;;;;;;5.68;3.15;;;20.10;99.90;;;;;;5021694;28;20224;-75
2023/06/11 00:58:17;;;;;;;4.53;2.55;;;20.10;99.90;;;;;;5024749;28;20244;-74
2023/06/11 01:00:49;;;;;;;8.13;3.10;;;20.10;99.90;;;;;;5021334;28;20701;-73
2023/06/11 01:03:18;;;;;;;4.57;3.08;;;20.00;99.90;;;;;;5025675;28;20212;-73
2023/06/11 01:06:01;;;;;;;3.65;2.78;;;20.00;99.90;;;;;;5021304;28;20168;-73
2023/06/11 01:08:29;;;;;;;7.95;3.08;;;20.00;99.90;;;;;;5041967;28;20255;-73
2023/06/11 01:11:01;;;;;;;5.63;2.72;;;20.00;99.90;;;;;;5022332;28;20196;-73
2023/06/11 01:13:30;;;;;;;3.72;2.80;;;19.90;99.90;;;;;;5028081;28;20220;-73
2023/06/11 01:16:34;;;;;;;5.63;2.75;;;19.90;99.90;;;;;;5025711;28;20200;-73
2023/06/11 01:19:28;;;;;;;5.22;2.55;;;19.90;99.90;;;;;;5019643;28;20203;-72
2023/06/11 01:21:59;;;;;;;4.97;2.45;;;19.80;99.90;;;;;;5021818;28;20200;-72
2023/06/11 01:24:40;;;;;;;3.92;2.55;;;19.70;99.90;;;;;;5024971;28;20227;-73
2023/06/11 01:27:35;;;;;;;5.18;2.47;;;19.60;99.90;;;;;;5020428;28;20212;-72
2023/06/11 01:30:04;;;;;;;4.05;2.42;;;19.60;99.90;;;;;;5025816;28;20171;-72
2023/06/11 01:32:31;;;;;;;4.75;2.60;;;19.60;99.90;;;;;;5024615;28;20227;-72
2023/06/11 01:35:01;;;;;;;5.00;2.72;;;19.60;99.90;;;;;;5029063;28;20240;-72
2023/06/11 01:37:29;;;;;;;4.43;2.28;;;19.60;99.90;;;;;;5025008;28;20210;-72
2023/06/11 01:39:56;;;;;;;4.90;2.78;;;19.60;99.90;;;;;;5027405;28;20231;-73
2023/06/11 01:42:22;;;;;;;7.03;2.45;;;19.50;99.90;;;;;;5025884;28;20261;-74
2023/06/11 01:44:47;;;;;;;4.93;2.92;;;19.60;99.90;;;;;;5027918;28;20180;-74
2023/06/11 01:47:13;;;;;;;4.80;2.42;;;19.50;99.90;;;;;;5023868;28;20531;-74
2023/06/11 01:49:38;;;;;;;9.75;2.78;;;19.50;99.90;;;;;;5025563;28;20694;-74
2023/06/11 01:52:05;;;;;;;6.82;2.90;;;19.40;99.90;;;;;;5027744;28;20212;-73
2023/06/11 01:54:31;;;;;;;6.88;3.05;;;19.40;99.90;;;;;;5032013;28;20232;-74
2023/06/11 01:56:56;;;;;;;7.00;2.80;;;19.40;99.90;;;;;;5025826;28;20247;-74
2023/06/11 01:59:22;;;;;;;5.97;2.63;;;19.40;99.90;;;;;;5029862;28;20192;-73
2023/06/11 02:01:53;;;;;;;7.65;2.88;;;19.20;99.90;;;;;;5024905;28;20200;-75
2023/06/11 02:04:20;;;;;;;6.45;2.90;;;19.20;99.90;;;;;;5029137;28;20212;-75
2023/06/11 02:06:46;;;;;;;3.13;2.78;;;19.20;99.90;;;;;;5024009;28;20285;-73
2023/06/11 02:09:12;;;;;;;4.90;2.67;;;19.20;99.90;;;;;;5027984;28;20301;-73
2023/06/11 02:11:38;;;;;;;4.82;2.50;;;19.20;99.90;;;;;;5025235;28;20240;-74
2023/06/11 02:14:03;;;;;;;4.80;2.72;;;19.10;99.90;;;;;;5020700;28;20211;-74
2023/06/11 02:16:29;;;;;;;8.25;2.70;;;19.10;99.90;;;;;;5021927;28;20200;-74
2023/06/11 02:18:54;;;;;;;8.25;2.70;;;19.00;99.90;;;;;;5028918;28;20275;-73
2023/06/11 02:21:20;;;;;;;6.03;2.70;;;19.10;99.90;;;;;;5019449;28;20208;-73
2023/06/11 02:23:46;;;;;;;4.53;2.47;;;19.00;99.90;;;;;;5022571;28;20185;-73
2023/06/11 02:26:12;;;;;;;5.85;2.60;;;19.00;99.90;;;;;;5024734;28;20579;-73
2023/06/11 02:28:37;;;;;;;5.88;2.72;;;19.00;99.90;;;;;;5025137;28;20261;-73
2023/06/11 02:31:03;;;;;;;5.97;2.63;;;19.00;99.90;;;;;;5028527;28;20209;-73
2023/06/11 02:33:28;;;;;;;5.43;2.60;;;18.90;99.90;;;;;;5026670;28;20253;-73
2023/06/11 02:35:54;;;;;;;5.60;2.83;;;18.90;99.90;;;;;;5019996;28;20181;-73
2023/06/11 02:38:20;;;;;;;6.38;2.42;;;18.90;99.90;;;;;;5020699;28;20227;-72
2023/06/11 02:40:45;;;;;;;6.45;2.75;;;18.90;99.90;;;;;;5021106;28;20252;-73
2023/06/11 02:43:11;;;;;;;12.20;3.33;;;18.90;99.90;;;;;;5028657;28;20777;-73
2023/06/11 02:45:36;;;;;;;3.47;2.30;;;18.80;99.90;;;;;;5025792;28;20253;-73
2023/06/11 02:48:02;;;;;;;4.82;2.88;;;18.80;99.90;;;;;;5042831;28;20287;-74
2023/06/11 02:50:28;;;;;;;4.82;2.78;;;18.70;99.90;;;;;;5032585;28;20176;-73
2023/06/11 02:52:53;;;;;;;6.05;3.15;;;18.70;99.90;;;;;;5021543;28;20957;-73
2023/06/11 02:55:19;;;;;;;4.07;2.53;;;18.70;99.90;;;;;;5030260;28;20212;-74
2023/06/11 02:57:44;;;;;;;3.55;2.78;;;18.70;99.90;;;;;;5030480;28;20216;-73
2023/06/11 03:00:11;;;;;;;4.65;2.50;;;18.60;99.90;;;;;;5029604;28;20212;-72
2023/06/11 03:02:37;;;;;;;6.13;2.85;;;18.60;99.90;;;;;;5027243;28;20326;-73
2023/06/11 03:05:03;;;;;;;4.78;2.42;;;18.70;99.90;;;;;;5024898;28;20287;-72
2023/06/11 03:07:28;;;;;;;4.47;2.63;;;18.70;99.90;;;;;;5026663;28;20224;-73
2023/06/11 03:09:54;;;;;;;5.63;2.53;;;18.60;99.90;;;;;;5026138;28;20287;-74
2023/06/11 03:12:20;;;;;;;4.15;2.60;;;18.60;99.90;;;;;;5029025;28;20221;-73
2023/06/11 03:14:46;;;;;;;6.45;2.60;;;18.60;99.90;;;;;;5027279;28;20223;-74
2023/06/11 03:17:11;;;;;;;5.00;2.60;;;18.60;99.90;;;;;;5025178;28;20166;-73
2023/06/11 03:19:37;;;;;;;4.85;2.60;;;18.60;99.90;;;;;;5030442;28;20683;-73
2023/06/11 03:22:03;;;;;;;4.55;2.75;;;18.60;99.90;;;;;;5023564;28;20200;-74
2023/06/11 03:24:28;;;;;;;5.07;2.85;;;18.80;99.90;;;;;;5027750;28;20231;-74
2023/06/11 03:26:54;;;;;;;6.03;2.35;;;19.60;99.90;;;;;;5021874;28;20659;-74
2023/06/11 03:29:19;;;;;;;5.43;3.00;;;20.30;99.90;;;;;;5028620;28;20270;-73
2023/06/11 03:31:45;;;;;;;5.30;2.50;;;21.20;99.90;;;;;;5024998;28;20208;-72
2023/06/11 03:34:11;;;;;;;5.72;2.60;;;21.40;99.90;;;;;;5022606;28;20215;-72
2023/06/11 03:36:36;;;;;;;2.80;2.20;;;21.40;99.90;;;;;;5024039;28;20780;-70
2023/06/11 03:39:02;;;;;;;4.07;2.80;;;21.40;99.90;;;;;;5026004;28;20220;-72
2023/06/11 03:41:28;;;;;;;5.30;2.40;;;21.20;99.90;;;;;;5026139;28;20180;-70
2023/06/11 03:43:54;;;;;;;7.38;2.50;;;20.90;99.90;;;;;;5025248;28;20208;-74
2023/06/11 03:46:21;;;;;;;4.82;2.45;;;21.30;99.90;;;;;;5028895;28;20577;-73
2023/06/11 03:48:46;;;;;;;3.60;2.10;;;21.50;99.90;;;;;;5026529;28;20634;-72
2023/06/11 03:51:13;;;;;;;8.48;2.75;;;22.80;99.90;;;;;;5019973;28;20217;-72
2023/06/11 03:53:38;;;;;;;4.18;2.67;;;23.70;99.90;;;;;;5025745;28;20204;-72
2023/06/11 03:56:04;;;;;;;5.68;2.65;;;24.10;99.90;;;;;;5025064;28;20249;-72
2023/06/11 03:58:30;;;;;;;5.03;3.40;;;24.60;99.90;;;;;;5020393;28;20441;-72
2023/06/11 04:00:55;;;;;;;5.88;2.67;;;25.00;99.70;;;;;;5019470;28;20213;-71
2023/06/11 04:03:21;;;;;;;4.32;2.38;;;25.40;99.00;;;;;;5027930;28;20278;-71
2023/06/11 04:05:47;;;;;;;4.85;2.55;;;25.80;97.90;;;;;;5023599;28;20256;-73
2023/06/11 04:08:12;;;;;;;4.40;2.50;;;26.10;96.70;;;;;;5023334;28;20230;-73
2023/06/11 04:10:38;;;;;;;7.60;4.47;;;26.40;96.10;;;;;;5022084;28;20586;-72
2023/06/11 04:13:04;;;;;;;5.07;3.03;;;27.20;94.80;;;;;;5026670;28;20706;-72
2023/06/11 04:15:30;;;;;;;3.13;2.63;;;27.20;93.90;;;;;;5027399;28;20214;-72
2023/06/11 04:17:56;;;;;;;7.60;3.05;;;27.50;93.40;;;;;;5023986;28;20287;-72
2023/06/11 04:20:21;;;;;;;4.97;2.30;;;27.80;92.60;;;;;;5024802;28;20268;-72
2023/06/11 04:22:47;;;;;;;4.00;2.15;;;28.80;91.90;;;;;;5025596;28;20725;-72
2023/06/11 04:25:13;;;;;;;6.75;2.80;;;28.80;91.00;;;;;;5025322;28;20288;-72
2023/06/11 04:27:38;;;;;;;7.03;4.30;;;28.70;90.40;;;;;;5026548;28;20216;-72
2023/06/11 04:30:06;;;;;;;6.13;2.67;;;28.40;90.10;;;;;;5018502;28;20208;-70
2023/06/11 04:32:34;;;;;;;5.00;3.00;;;28.60;90.10;;;;;;5023848;28;20246;-72
2023/06/11 04:35:04;;;;;;;6.28;2.80;;;28.60;88.80;;;;;;5027183;28;20212;-72
2023/06/11 04:37:38;;;;;;;5.20;2.50;;;28.20;89.40;;;;;;5027899;28;20219;-72
2023/06/11 04:40:10;;;;;;;3.53;2.65;;;27.90;89.20;;;;;;5027520;28;20211;-72
2023/06/11 04:42:40;;;;;;;5.65;2.70;;;27.90;89.40;;;;;;5025463;28;20221;-73
2023/06/11 04:45:08;;;;;;;3.78;2.33;;;28.60;88.10;;;;;;5028919;28;20230;-72
2023/06/11 04:47:34;;;;;;;5.82;3.30;;;29.30;86.10;;;;;;5029725;28;20223;-74
2023/06/11 04:50:04;;;;;;;7.43;3.97;;;28.90;86.70;;;;;;5020465;28;20212;-72
2023/06/11 04:52:38;;;;;;;6.93;3.22;;;29.00;85.10;;;;;;5025867;28;20212;-71
2023/06/11 04:55:05;;;;;;;6.18;3.47;;;28.90;85.20;;;;;;5025356;28;20231;-70
2023/06/11 04:57:34;;;;;;;3.67;2.70;;;28.80;86.00;;;;;;5024749;28;20220;-72
2023/06/11 05:00:00;;;;;;;8.35;2.75;;;29.20;84.10;;;;;;5028649;28;20267;-71
2023/06/11 05:02:26;;;;;;;4.22;2.28;;;29.00;84.70;;;;;;5029374;28;20627;-72
2023/06/11 05:04:53;;;;;;;4.85;2.88;;;29.00;84.00;;;;;;5024526;28;20267;-70
2023/06/11 05:07:19;;;;;;;8.40;2.65;;;28.80;84.90;;;;;;5027256;28;20291;-72
2023/06/11 05:09:45;;;;;;;6.25;3.28;;;29.20;83.80;;;;;;5026416;28;20261;-72
2023/06/11 05:12:11;;;;;;;4.07;2.45;;;29.70;82.00;;;;;;5027875;28;20215;-72
2023/06/11 05:14:37;;;;;;;6.18;3.70;;;29.60;81.50;;;;;;5025417;28;20234;-72
2023/06/11 05:17:03;;;;;;;4.43;3.25;;;29.80;81.50;;;;;;5022980;28;20686;-70
2023/06/11 05:19:29;;;;;;;6.55;2.75;;;30.00;80.60;;;;;;5024257;28;20261;-71
2023/06/11 05:21:55;;;;;;;5.00;2.83;;;30.80;80.00;;;;;;5023936;28;20205;-72
2023/06/11 05:24:21;;;;;;;5.93;2.60;;;31.10;79.20;;;;;;5022295;28;20716;-73
2023/06/11 05:26:47;;;;;;;5.57;2.85;;;31.80;76.90;;;;;;5027434;28;20180;-72
2023/06/11 05:29:12;;;;;;;3.10;2.45;;;30.80;76.60;;;;;;5022386;28;20275;-74
2023/06/11 05:31:39;;;;;;;5.88;3.72;;;31.10;76.90;;;;;;5024265;28;20635;-73
2023/06/11 05:34:04;;;;;;;5.90;2.85;;;31.40;75.30;;;;;;5028685;28;20219;-71
2023/06/11 05:36:31;;;;;;;6.35;3.00;;;31.90;74.70;;;;;;5026496;28;20227;-74
2023/06/11 05:38:57;;;;;;;5.50;3.20;;;30.70;74.90;;;;;;5026217;28;20259;-74
2023/06/11 05:41:22;;;;;;;4.30;2.42;;;31.30;74.60;;;;;;5027927;28;20203;-74
2023/06/11 05:43:48;;;;;;;2.83;2.60;;;30.30;75.90;;;;;;5022986;28;20223;-73
2023/06/11 05:46:14;;;;;;;5.70;2.65;;;30.60;75.30;;;;;;5026731;28;20200;-70
2023/06/11 05:48:41;;;;;;;2.85;2.50;;;30.60;75.60;;;;;;5027586;28;20300;-71
2023/06/11 05:51:07;;;;;;;2.80;2.45;;;31.70;74.20;;;;;;5025972;28;20216;-71
2023/06/11 05:53:33;;;;;;;6.85;2.60;;;31.30;73.40;;;;;;5025394;28;20211;-71
2023/06/11 05:56:03;;;;;;;9.50;2.90;;;31.20;73.70;;;;;;5023088;28;20208;-71
2023/06/11 05:58:32;;;;;;;4.97;2.67;;;31.40;72.90;;;;;;5027996;28;20209;-71
2023/06/11 06:01:01;;;;;;;3.45;2.45;;;31.60;72.70;;;;;;5025930;28;20208;-71
2023/06/11 06:03:30;;;;;;;4.93;2.60;;;31.90;72.20;;;;;;5027445;28;20200;-72
2023/06/11 06:05:58;;;;;;;3.60;3.13;;;32.10;72.00;;;;;;5026488;28;20203;-73
2023/06/11 06:08:25;;;;;;;6.05;2.60;;;32.00;71.10;;;;;;5024059;28;20207;-72
2023/06/11 06:10:51;;;;;;;6.40;3.30;;;32.80;71.60;;;;;;5026961;28;20223;-72
2023/06/11 06:13:17;;;;;;;5.47;2.90;;;33.50;69.40;;;;;;5026937;28;20316;-72
2023/06/11 06:15:42;;;;;;;7.38;3.67;;;33.40;69.60;;;;;;5021911;28;20216;-72
2023/06/11 06:18:08;;;;;;;8.32;3.00;;;33.60;67.70;;;;;;5019197;28;20231;-72
2023/06/11 06:20:34;;;;;;;6.68;3.58;;;33.00;69.10;;;;;;5021728;28;20260;-71
2023/06/11 06:22:59;;;;;;;3.75;2.60;;;33.50;67.50;;;;;;5028177;28;20212;-72
2023/06/11 06:25:25;;;;;;;3.40;2.30;;;33.20;67.60;;;;;;5027725;28;20211;-73
2023/06/11 06:27:51;;;;;;;4.35;2.47;;;33.00;66.80;;;;;;5029860;28;20215;-72
2023/06/11 06:30:17;;;;;;;3.08;2.40;;;32.70;66.90;;;;;;5031910;28;20353;-73
2023/06/11 06:32:43;;;;;;;4.00;2.40;;;33.00;66.80;;;;;;5029332;28;20208;-73
2023/06/11 06:35:09;;;;;;;4.63;2.80;;;32.80;67.40;;;;;;5025796;28;20222;-72
2023/06/11 06:37:35;;;;;;;6.88;3.72;;;32.80;67.40;;;;;;5030622;28;20215;-73
2023/06/11 06:40:01;;;;;;;6.32;3.10;;;33.60;66.90;;;;;;5028415;28;20295;-72
2023/06/11 06:42:27;;;;;;;3.80;3.42;;;34.00;66.70;;;;;;5031025;28;20298;-73
2023/06/11 06:44:52;;;;;;;5.00;3.17;;;34.80;65.60;;;;;;5029034;28;20556;-72
2023/06/11 06:47:18;;;;;;;4.45;3.55;;;34.60;63.50;;;;;;5027067;28;20211;-72
2023/06/11 06:49:44;;;;;;;7.55;3.33;;;34.70;63.70;;;;;;5031160;28;20247;-72
2023/06/11 06:52:11;;;;;;;5.32;2.60;;;35.00;63.30;;;;;;5030477;28;20208;-73
2023/06/11 06:54:37;;;;;;;6.93;2.80;;;34.10;63.50;;;;;;5025575;28;20223;-73
2023/06/11 06:57:03;;;;;;;5.32;2.80;;;34.30;63.90;;;;;;5027550;28;20180;-73
2023/06/11 06:59:28;;;;;;;3.35;2.55;;;35.00;63.50;;;;;;5027847;28;20207;-73
2023/06/11 07:01:54;;;;;;;6.72;2.85;;;34.80;62.50;;;;;;5026844;28;20274;-73
2023/06/11 07:04:20;;;;;;;4.30;2.72;;;35.60;62.40;;;;;;5030699;28;20205;-73
2023/06/11 07:06:45;;;;;;;4.25;3.00;;;35.60;62.20;;;;;;5029102;28;20239;-72
2023/06/11 07:09:11;;;;;;;7.80;3.17;;;35.30;62.40;;;;;;5023660;28;20254;-74
2023/06/11 07:11:37;;;;;;;3.20;2.90;;;35.90;61.80;;;;;;5028597;28;20200;-73
2023/06/11 07:14:03;;;;;;;4.47;2.63;;;36.00;60.90;;;;;;5027702;28;20306;-73
2023/06/11 07:16:29;;;;;;;5.97;2.72;;;36.60;61.00;;;;;;5023914;28;20208;-73
2023/06/11 07:18:55;;;;;;;3.70;3.05;;;36.30;59.70;;;;;;5025516;28;20230;-73
2023/06/11 07:21:20;;;;;;;5.20;3.05;;;35.60;59.80;;;;;;5025902;28;20716;-72
2023/06/11 07:23:46;;;;;;;3.50;2.60;;;36.20;60.90;;;;;;5024576;28;20223;-73
2023/06/11 07:26:13;;;;;;;3.67;2.88;;;36.60;59.70;;;;;;5023403;28;20198;-73
2023/06/11 07:28:40;;;;;;;3.97;3.10;;;36.40;59.90;;;;;;5026087;28;20208;-74
2023/06/11 07:31:06;;;;;;;4.55;2.75;;;35.80;59.80;;;;;;5027524;28;20200;-74
2023/06/11 07:33:32;;;;;;;4.13;2.80;;;35.80;59.60;;;;;;5022427;28;20215;-72
2023/06/11 07:35:59;;;;;;;7.22;2.88;;;35.90;59.70;;;;;;5021498;28;20176;-73
2023/06/11 07:38:25;;;;;;;4.00;3.00;;;35.90;59.60;;;;;;5023557;28;20728;-73
2023/06/11 07:40:51;;;;;;;6.40;3.20;;;36.70;60.30;;;;;;5028230;28;20268;-73
2023/06/11 07:43:16;;;;;;;6.10;3.00;;;37.30;58.60;;;;;;5027698;28;20204;-72
2023/06/11 07:45:43;;;;;;;8.25;3.17;;;36.50;58.80;;;;;;5026556;28;20204;-73
2023/06/11 07:48:09;;;;;;;4.00;3.60;;;36.00;59.70;;;;;;5028616;28;20227;-73
2023/06/11 07:50:37;;;;;;;5.45;3.17;;;36.40;59.50;;;;;;5028683;28;20184;-73
2023/06/11 07:53:03;;;;;;;5.38;3.10;;;36.80;59.10;;;;;;5026439;28;20203;-73
2023/06/11 07:55:30;;;;;;;5.97;3.25;;;37.10;58.20;;;;;;5009499;28;20297;-73
2023/06/11 07:57:56;;;;;;;6.00;3.40;;;36.40;58.30;;;;;;5019097;28;20699;-73
2023/06/11 08:00:22;;;;;;;3.55;3.10;;;36.10;59.70;;;;;;5024090;28;20247;-74
2023/06/11 08:02:48;;;;;;;5.93;3.00;;;37.00;59.50;;;;;;5027754;28;20180;-74
2023/06/11 08:05:17;;;;;;;6.32;3.75;;;37.00;59.40;;;;;;5027244;28;20168;-74
2023/06/11 08:07:47;;;;;;;4.63;2.90;;;37.50;58.60;;;;;;5027251;28;20212;-74
2023/06/11 08:10:14;;;;;;;3.47;2.90;;;36.60;58.70;;;;;;5024692;28;20291;-74
2023/06/11 08:12:40;;;;;;;5.25;3.65;;;37.40;58.60;;;;;;5026570;28;20216;-74
2023/06/11 08:15:06;;;;;;;5.35;3.45;;;37.90;57.90;;;;;;5027155;28;20223;-74
2023/06/11 08:17:31;;;;;;;5.50;3.25;;;37.80;57.30;;;;;;5023836;28;20207;-74
2023/06/11 08:19:57;;;;;;;5.22;3.38;;;37.30;58.10;;;;;;5026274;28;20283;-74
2023/06/11 08:22:23;;;;;;;4.82;3.47;;;36.70;58.90;;;;;;5023572;28;20196;-74
2023/06/11 08:24:48;;;;;;;6.68;3.08;;;37.60;58.70;;;;;;5022409;28;20212;-74
2023/06/11 08:27:14;;;;;;;5.25;3.40;;;37.70;58.10;;;;;;5027004;28;20275;-74
2023/06/11 08:29:41;;;;;;;5.93;3.67;;;37.50;57.90;;;;;;5022647;28;20169;-74
2023/06/11 08:32:07;;;;;;;4.68;3.60;;;36.70;57.60;;;;;;5029122;28;20218;-74
2023/06/11 08:34:32;;;;;;;4.50;3.22;;;37.10;58.40;;;;;;5026296;28;20237;-74
2023/06/11 08:36:58;;;;;;;5.90;3.63;;;37.40;58.20;;;;;;5017617;28;20203;-74
2023/06/11 08:39:24;;;;;;;5.75;3.67;;;37.20;57.60;;;;;;5039614;28;20216;-74
2023/06/11 08:41:49;;;;;;;4.25;3.60;;;37.20;58.00;;;;;;5014410;28;20172;-74
2023/06/11 08:44:15;;;;;;;8.55;3.85;;;37.10;58.10;;;;;;5019623;28;20212;-74
2023/06/11 08:46:44;;;;;;;8.25;4.47;;;37.10;58.50;;;;;;5020491;28;20220;-74
2023/06/11 08:49:17;;;;;;;10.07;4.30;;;36.00;58.00;;;;;;5016393;28;20685;-73
2023/06/11 08:51:43;;;;;;;5.78;4.07;;;35.40;59.60;;;;;;5017656;28;20858;-74
2023/06/11 08:54:09;;;;;;;6.18;4.25;;;34.80;60.60;;;;;;5021524;28;20231;-73
2023/06/11 08:56:35;;;;;;;6.88;3.55;;;34.20;60.40;;;;;;5028440;28;20213;-75
2023/06/11 08:59:02;;;;;;;4.60;3.42;;;33.70;61.30;;;;;;5021421;28;20208;-75
2023/06/11 09:01:28;;;;;;;5.15;3.28;;;33.80;62.90;;;;;;5027491;28;20638;-75
2023/06/11 09:03:54;;;;;;;4.75;3.33;;;34.50;63.10;;;;;;5023845;28;20212;-74
2023/06/11 09:06:20;;;;;;;4.72;3.58;;;34.40;61.50;;;;;;5023080;28;20205;-74
2023/06/11 09:09:05;;;;;;;6.43;3.70;;;34.20;61.80;;;;;;5023742;28;21261;-74
2023/06/11 09:11:34;;;;;;;8.32;5.28;;;34.20;61.50;;;;;;5024598;28;20164;-73
2023/06/11 09:14:01;;;;;;;8.23;5.53;;;33.00;62.40;;;;;;5027923;28;20251;-74
2023/06/11 09:16:27;;;;;;;4.03;3.20;;;33.30;63.40;;;;;;5023115;28;20208;-76
2023/06/11 09:18:55;;;;;;;5.10;3.97;;;33.70;64.40;;;;;;5040519;28;20219;-74
2023/06/11 09:21:23;;;;;;;5.85;4.03;;;34.10;63.30;;;;;;5025450;28;20212;-74
2023/06/11 09:23:48;;;;;;;5.30;4.10;;;32.60;63.10;;;;;;5027585;28;20187;-75
2023/06/11 09:26:18;;;;;;;11.93;4.50;;;31.80;64.90;;;;;;5026305;28;20177;-74
2023/06/11 09:28:46;;;;;;;8.15;3.92;;;31.80;65.80;;;;;;5025840;28;20299;-72
2023/06/11 09:31:11;;;;;;;6.63;4.80;;;32.50;66.50;;;;;;5022887;28;20215;-74
2023/06/11 09:33:37;;;;;;;8.35;4.80;;;32.10;65.60;;;;;;5027868;28;20219;-75
2023/06/11 09:36:03;;;;;;;7.63;3.85;;;31.70;66.50;;;;;;5024294;28;20183;-75
2023/06/11 09:38:33;;;;;;;8.25;4.20;;;31.10;67.60;;;;;;5028324;28;20220;-73
2023/06/11 09:40:59;;;;;;;7.55;3.90;;;31.80;68.50;;;;;;5021880;28;20223;-73
2023/06/11 09:43:25;;;;;;;6.88;5.38;;;32.20;67.10;;;;;;5020673;28;20362;-73
2023/06/11 09:45:55;;;;;;;8.60;4.43;;;31.90;66.90;;;;;;5026038;28;20291;-74
2023/06/11 09:48:24;;;;;;;7.70;4.53;;;31.00;68.10;;;;;;5023989;28;20251;-74
2023/06/11 09:50:52;;;;;;;6.43;4.60;;;31.00;68.40;;;;;;5026949;28;20561;-73
2023/06/11 09:53:19;;;;;;;7.95;4.55;;;30.30;69.10;;;;;;5024547;28;20274;-74
2023/06/11 09:55:49;;;;;;;4.75;4.32;;;29.90;70.80;;;;;;5017606;28;20209;-72
2023/06/11 09:58:17;;;;;;;6.65;4.75;;;29.80;71.20;;;;;;5029299;28;20227;-73
2023/06/11 10:00:47;;;;;;;6.38;4.35;;;29.20;71.90;;;;;;5028928;28;20211;-70
2023/06/11 10:03:12;;;;;;;6.45;4.07;;;29.10;72.90;;;;;;5028213;28;20302;-72
2023/06/11 10:05:38;;;;;;;7.78;4.68;;;29.50;72.30;;;;;;5028418;28;20651;-72
2023/06/11 10:08:16;;;;;;;7.10;4.05;;;29.30;73.10;;;;;;5025300;28;20208;-73
2023/06/11 10:10:44;;;;;;;5.47;4.78;;;29.80;73.00;;;;;;5045368;28;20219;-75
2023/06/11 10:13:10;;;;;;;7.03;3.92;;;29.30;72.00;;;;;;5026227;28;20278;-72
2023/06/11 10:15:37;;;;;;;5.30;4.38;;;29.30;73.00;;;;;;5025770;28;20216;-72
2023/06/11 10:18:13;;;;;;;5.65;4.22;;;29.10;73.00;;;;;;5022810;28;20196;-74
2023/06/11 10:21:03;;;;;;;7.68;4.18;;;29.00;73.90;;;;;;5023125;28;20669;-72
2023/06/11 10:23:39;;;;;;;11.57;5.72;;;29.60;73.40;;;;;;5010985;28;20212;-73
2023/06/11 10:26:05;;;;;;;6.82;4.65;;;29.30;72.80;;;;;;5018712;28;20781;-71
2023/06/11 10:28:36;;;;;;;7.03;4.88;;;29.10;72.70;;;;;;5022877;28;20715;-73
2023/06/11 10:31:03;;;;;;;9.13;5.10;;;29.20;73.00;;;;;;5027828;28;20213;-71
2023/06/11 10:34:04;;;;;;;7.38;5.03;;;29.20;73.80;;;;;;5028901;28;20311;-72
2023/06/11 10:36:38;;;;;;;6.78;4.88;;;29.00;73.80;;;;;;5026464;28;20691;-73
2023/06/11 10:39:20;;;;;;;8.35;4.82;;;28.50;73.40;;;;;;5023182;28;20215;-72
2023/06/11 10:41:46;;;;;;;8.85;4.97;;;28.10;74.30;;;;;;5025102;28;20188;-75
2023/06/11 10:44:14;;;;;;;9.52;5.18;;;28.40;75.10;;;;;;5026301;28;20214;-72
2023/06/11 10:46:49;;;;;;;6.60;4.65;;;28.40;75.50;;;;;;5022963;28;20273;-72
2023/06/11 10:49:15;;;;;;;10.73;5.28;;;28.70;74.70;;;;;;5027695;28;20223;-73
2023/06/11 10:51:41;;;;;;;6.15;4.32;;;28.40;74.10;;;;;;5030769;28;20212;-73
2023/06/11 10:54:07;;;;;;;8.60;5.20;;;28.80;75.10;;;;;;5028646;28;20220;-73
2023/06/11 10:56:37;;;;;;;7.50;4.45;;;28.80;75.90;;;;;;5031491;28;20715;-72
2023/06/11 10:59:09;;;;;;;6.10;4.45;;;29.10;76.10;;;;;;5025734;28;20208;-72
2023/06/11 11:01:35;;;;;;;8.70;5.57;;;29.10;75.20;;;;;;5027932;28;20231;-71
2023/06/11 11:04:02;;;;;;;8.40;5.03;;;29.00;74.90;;;;;;5028969;28;20239;-72
2023/06/11 11:06:28;;;;;;;12.07;5.60;;;29.50;73.80;;;;;;5021904;28;20219;-72
2023/06/11 11:08:55;;;;;;;7.47;5.20;;;29.60;72.30;;;;;;5028923;28;20200;-76
2023/06/11 11:11:22;;;;;;;6.88;5.30;;;29.60;72.90;;;;;;5019269;28;20220;-74
2023/06/11 11:13:49;;;;;;;6.78;4.85;;;28.90;72.80;;;;;;5027537;28;20216;-74
2023/06/11 11:16:16;;;;;;;8.77;5.53;;;28.40;73.80;;;;;;5026628;28;20398;-76
2023/06/11 11:18:42;;;;;;;6.53;5.80;;;28.20;74.40;;;;;;5029157;28;20212;-74
2023/06/11 11:21:08;;;;;;;6.13;4.85;;;27.90;74.30;;;;;;5023531;28;20228;-74
2023/06/11 11:23:33;;;;;;;10.90;6.45;;;27.80;74.40;;;;;;5021841;28;20559;-76
2023/06/11 11:25:59;;;;;;;10.27;5.90;;;27.90;74.50;;;;;;5021404;28;20228;-73
2023/06/11 11:28:26;;;;;;;7.72;5.20;;;28.00;74.90;;;;;;5027249;28;20213;-71
2023/06/11 11:30:52;;;;;;;7.40;5.50;;;28.00;74.60;;;;;;5027913;28;20208;-73
2023/06/11 11:33:17;;;;;;;6.85;5.15;;;28.20;74.70;;;;;;5028134;28;20231;-74
2023/06/11 11:35:53;;;;;;;11.13;4.85;;;28.40;74.60;;;;;;5026321;28;20185;-74
2023/06/11 11:38:19;;;;;;;9.00;6.32;;;28.80;74.50;;;;;;5022057;28;20239;-76
2023/06/11 11:40:45;;;;;;;12.68;5.90;;;28.70;74.30;;;;;;5027406;28;20212;-73
2023/06/11 11:43:15;;;;;;;6.28;5.03;;;28.60;74.60;;;;;;5025580;28;20215;-75
2023/06/11 11:45:47;;;;;;;8.35;5.88;;;29.00;73.90;;;;;;5022132;28;20671;-75
2023/06/11 11:48:15;;;;;;;6.43;5.55;;;29.10;71.90;;;;;;5018043;28;20701;-77
2023/06/11 11:50:40;;;;;;;9.45;5.53;;;28.90;72.30;;;;;;5017978;28;20173;-70
2023/06/11 11:53:13;;;;;;;9.10;5.32;;;29.30;72.70;;;;;;5016276;28;20216;-70
2023/06/11 11:55:44;;;;;;;5.75;5.15;;;30.00;72.00;;;;;;5015723;28;20209;-70
2023/06/11 11:58:12;;;;;;;8.00;5.40;;;29.60;71.60;;;;;;5018436;28;20209;-73
2023/06/11 12:00:46;;;;;;;7.25;5.88;;;29.10;73.10;;;;;;5018185;28;20216;-77
2023/06/11 12:03:12;;;;;;;7.10;5.45;;;29.40;73.70;;;;;;5025034;28;20266;-75
2023/06/11 12:05:38;;;;;;;11.18;5.40;;;29.40;72.60;;;;;;5020980;28;20674;-74
2023/06/11 12:08:05;;;;;;;6.85;5.22;;;29.40;73.50;;;;;;5026312;28;20242;-73
2023/06/11 12:10:31;;;;;;;8.27;5.80;;;29.50;73.40;;;;;;5022171;28;20214;-76
2023/06/11 12:12:59;;;;;;;11.35;5.55;;;29.50;74.00;;;;;;5026740;28;20216;-75
2023/06/11 12:15:24;;;;;;;9.38;6.10;;;29.40;74.50;;;;;;5024059;28;21020;-78
2023/06/11 12:17:51;;;;;;;8.35;6.43;;;29.10;74.40;;;;;;5026579;28;20192;-78
2023/06/11 12:20:17;;;;;;;10.63;5.97;;;29.20;74.90;;;;;;5022995;28;20179;-76
2023/06/11 12:22:43;;;;;;;9.60;6.03;;;28.90;75.40;;;;;;5028278;28;20319;-77
2023/06/11 12:25:09;;;;;;;7.30;5.07;;;28.40;75.80;;;;;;5027275;28;20250;-75
2023/06/11 12:27:36;;;;;;;9.02;6.50;;;28.00;77.30;;;;;;5027471;28;20221;-74
2023/06/11 12:30:02;;;;;;;10.05;6.00;;;27.50;78.00;;;;;;5025281;28;20663;-76
2023/06/11 12:32:30;;;;;;;6.90;5.72;;;27.60;78.80;;;;;;5019521;28;20188;-75
2023/06/11 12:34:56;;;;;;;7.10;5.95;;;27.80;78.20;;;;;;5026717;28;20591;-74
2023/06/11 12:37:22;;;;;;;8.60;6.25;;;28.10;78.30;;;;;;5024444;28;20204;-75
2023/06/11 12:39:48;;;;;;;13.48;5.97;;;28.00;79.00;;;;;;5028910;28;20733;-75
2023/06/11 12:42:14;;;;;;;7.10;5.72;;;27.90;79.70;;;;;;5022001;28;20236;-75
2023/06/11 12:44:45;;;;;;;9.57;6.50;;;28.10;79.80;;;;;;5027328;28;20173;-72
2023/06/11 12:47:11;;;;;;;12.95;7.15;;;28.20;79.40;;;;;;5007028;28;20216;-75